createdAt,value
2022-12-18T00:02:05.110Z,16.13
2022-12-18T00:05:48.834Z,16.90
2022-12-18T00:09:31.390Z,16.17
2022-12-18T00:13:21.735Z,13.68
2022-12-18T00:17:03.718Z,16.42
2022-12-18T00:20:45.467Z,18.35
2022-12-18T00:24:27.428Z,18.52
2022-12-18T00:28:09.153Z,19.63
2022-12-18T00:31:50.996Z,21.25
2022-12-18T00:35:33.069Z,20.77
2022-12-18T00:39:14.853Z,18.92
2022-12-18T00:42:56.681Z,21.38
2022-12-18T00:46:38.517Z,21.98
2022-12-18T00:50:20.366Z,19.88
2022-12-18T00:54:02.176Z,19.65
2022-12-18T00:57:44.115Z,18.95
2022-12-18T01:01:26.013Z,17.65
2022-12-18T01:05:08.985Z,17.10
2022-12-18T01:08:50.778Z,16.58
2022-12-18T01:12:32.613Z,16.88
2022-12-18T01:16:16.736Z,15.65
2022-12-18T01:19:58.577Z,16.00
2022-12-18T01:23:40.881Z,15.68
2022-12-18T01:27:23.028Z,16.05
2022-12-18T01:31:21.488Z,10.52
2022-12-18T01:35:03.938Z,12.07
2022-12-18T01:38:46.437Z,14.60
2022-12-18T01:42:28.201Z,16.80
2022-12-18T01:46:10.398Z,12.95
2022-12-18T01:49:52.837Z,10.55
2022-12-18T01:53:34.996Z,11.25
2022-12-18T01:57:17.082Z,9.48
2022-12-18T02:00:58.853Z,9.40
2022-12-18T02:04:43.920Z,8.30
2022-12-18T02:08:43.389Z,8.23
2022-12-18T02:12:32.513Z,8.75
2022-12-18T02:16:30.566Z,7.43
2022-12-18T02:20:36.008Z,7.25
2022-12-18T02:24:29.899Z,6.60
2022-12-18T02:28:15.797Z,6.10
2022-12-18T02:31:59.974Z,6.28
2022-12-18T02:35:42.811Z,6.88
2022-12-18T02:39:27.679Z,5.88
2022-12-18T02:43:15.344Z,6.45
2022-12-18T02:46:57.215Z,6.90
2022-12-18T02:51:00.510Z,6.85
2022-12-18T02:54:56.994Z,7.85
2022-12-18T02:58:59.606Z,6.67
2022-12-18T03:02:54.345Z,7.30
2022-12-18T03:06:45.229Z,6.05
2022-12-18T03:10:31.193Z,5.78
2022-12-18T03:14:16.584Z,6.03
2022-12-18T03:18:05.572Z,5.60
2022-12-18T03:21:52.147Z,6.68
2022-12-18T03:25:39.004Z,5.57
2022-12-18T03:29:28.229Z,6.35
2022-12-18T03:33:25.150Z,7.05
2022-12-18T03:37:07.390Z,7.18
2022-12-18T03:40:58.113Z,6.88
2022-12-18T03:44:48.637Z,6.60
2022-12-18T03:48:44.678Z,6.60
2022-12-18T03:52:26.350Z,6.55
2022-12-18T03:56:10.134Z,7.28
2022-12-18T03:59:57.533Z,7.05
2022-12-18T04:03:41.211Z,6.85
2022-12-18T04:07:24.230Z,7.88
2022-12-18T04:11:06.029Z,8.07
2022-12-18T04:14:47.772Z,7.07
2022-12-18T04:18:29.511Z,7.70
2022-12-18T04:22:11.910Z,7.53
2022-12-18T04:25:53.634Z,7.70
2022-12-18T04:29:35.369Z,7.38
2022-12-18T04:33:17.142Z,7.97
2022-12-18T04:36:58.934Z,7.00
2022-12-18T04:40:41.426Z,8.27
2022-12-18T04:44:23.803Z,7.57
2022-12-18T04:48:05.817Z,7.90
2022-12-18T04:51:47.605Z,9.18
2022-12-18T04:55:29.372Z,8.82
2022-12-18T04:59:11.178Z,7.75
2022-12-18T05:02:53.056Z,8.30
2022-12-18T05:06:34.985Z,7.65
2022-12-18T05:10:16.816Z,8.13
2022-12-18T05:13:58.540Z,7.72
2022-12-18T05:17:40.309Z,8.32
2022-12-18T05:21:22.032Z,9.55
2022-12-18T05:25:03.883Z,6.82
2022-12-18T05:28:46.084Z,8.70
2022-12-18T05:32:27.797Z,9.45
2022-12-18T05:36:10.777Z,8.30
2022-12-18T05:39:52.536Z,10.38
2022-12-18T05:43:37.127Z,12.00
2022-12-18T05:47:19.034Z,10.52
2022-12-18T05:51:09.501Z,10.07
2022-12-18T05:54:51.350Z,10.70
2022-12-18T05:58:35.177Z,11.63
2022-12-18T06:02:17.013Z,12.13
2022-12-18T06:05:58.815Z,11.40
2022-12-18T06:09:40.549Z,10.55
2022-12-18T06:13:22.417Z,11.60
2022-12-18T06:17:04.146Z,11.80
2022-12-18T06:20:45.882Z,11.52
2022-12-18T06:24:27.685Z,11.20
2022-12-18T06:28:09.423Z,12.32
2022-12-18T06:31:52.670Z,11.38
2022-12-18T06:35:34.426Z,10.90
2022-12-18T06:39:16.208Z,11.30
2022-12-18T06:42:58.694Z,12.30
2022-12-18T06:46:40.422Z,10.52
2022-12-18T06:50:23.470Z,10.40
2022-12-18T06:54:05.314Z,10.73
2022-12-18T06:57:47.191Z,10.07
2022-12-18T07:01:28.977Z,12.75
2022-12-18T07:05:11.257Z,10.48
2022-12-18T07:08:55.037Z,11.10
2022-12-18T07:12:36.894Z,10.35
2022-12-18T07:16:24.744Z,9.68
2022-12-18T07:20:08.141Z,9.88
2022-12-18T07:23:50.329Z,10.63
2022-12-18T07:27:32.124Z,10.02
2022-12-18T07:31:21.572Z,8.93
2022-12-18T07:35:03.884Z,9.65
2022-12-18T07:38:48.896Z,9.23
2022-12-18T07:42:33.424Z,9.30
2022-12-18T07:46:16.640Z,8.65
2022-12-18T07:49:58.434Z,9.85
2022-12-18T07:53:41.963Z,10.32
2022-12-18T07:57:48.971Z,9.95
2022-12-18T08:01:28.759Z,9.38
2022-12-18T08:05:10.765Z,9.23
2022-12-18T08:08:54.451Z,8.90
2022-12-18T08:12:36.291Z,8.38
2022-12-18T08:16:18.289Z,7.75
2022-12-18T08:20:00.198Z,7.78
2022-12-18T08:23:43.529Z,8.35
2022-12-18T08:27:29.895Z,7.40
2022-12-18T08:31:12.293Z,7.70
2022-12-18T08:34:54.074Z,7.70
2022-12-18T08:38:35.881Z,8.20
2022-12-18T08:42:36.326Z,7.60
2022-12-18T08:46:19.309Z,7.97
2022-12-18T08:50:01.128Z,8.07
2022-12-18T08:53:43.379Z,8.65
2022-12-18T08:57:25.254Z,9.43
2022-12-18T09:01:12.248Z,9.20
2022-12-18T09:04:57.643Z,9.40
2022-12-18T09:08:39.929Z,9.73
2022-12-18T09:12:21.901Z,8.88
2022-12-18T09:16:04.602Z,9.50
2022-12-18T09:19:46.389Z,8.32
2022-12-18T09:23:28.169Z,8.55
2022-12-18T09:27:09.922Z,8.30
2022-12-18T09:30:51.870Z,10.18
2022-12-18T09:34:33.725Z,9.25
2022-12-18T09:38:19.007Z,11.20
2022-12-18T09:42:00.860Z,9.68
2022-12-18T09:45:47.944Z,11.23
2022-12-18T09:49:33.423Z,11.68
2022-12-18T09:53:27.664Z,11.15
2022-12-18T09:57:16.046Z,9.15
2022-12-18T10:00:57.914Z,10.55
2022-12-18T10:04:40.294Z,10.60
2022-12-18T10:08:34.021Z,9.68
2022-12-18T10:12:49.092Z,11.05
2022-12-18T10:17:01.251Z,10.15
2022-12-18T10:20:48.447Z,11.98
2022-12-18T10:24:46.126Z,11.05
2022-12-18T10:28:30.143Z,10.13
2022-12-18T10:32:23.644Z,11.15
2022-12-18T10:36:07.325Z,11.95
2022-12-18T10:40:10.196Z,10.02
2022-12-18T10:44:21.209Z,12.90
2022-12-18T10:48:04.261Z,12.65
2022-12-18T10:51:46.149Z,11.15
2022-12-18T10:55:35.895Z,12.73
2022-12-18T10:59:19.032Z,12.30
2022-12-18T11:03:00.945Z,11.88
2022-12-18T11:07:07.227Z,11.73
2022-12-18T11:10:48.943Z,12.70
2022-12-18T11:14:34.945Z,12.85
2022-12-18T11:18:35.080Z,11.52
2022-12-18T11:22:30.107Z,10.55
2022-12-18T11:26:11.943Z,10.68
2022-12-18T11:29:53.857Z,11.77
2022-12-18T11:33:36.517Z,9.93
2022-12-18T11:37:22.057Z,9.35
2022-12-18T11:41:53.471Z,9.95
2022-12-18T11:46:08.181Z,9.57
2022-12-18T11:49:51.523Z,10.13
2022-12-18T11:53:33.530Z,9.23
2022-12-18T11:57:36.031Z,7.85
2022-12-18T12:01:44.677Z,7.78
2022-12-18T12:05:35.450Z,7.85
2022-12-18T12:09:55.681Z,6.40
2022-12-18T12:13:43.275Z,5.35
2022-12-18T12:17:49.259Z,4.93
2022-12-18T12:21:54.796Z,4.05
2022-12-18T12:26:05.375Z,4.03
2022-12-18T12:30:33.103Z,4.80
2022-12-18T12:34:24.142Z,4.18
2022-12-18T12:38:08.990Z,3.50
2022-12-18T12:42:09.174Z,3.47
2022-12-18T12:46:00.088Z,3.08
2022-12-18T12:49:48.426Z,3.33
2022-12-18T12:53:36.318Z,3.22
2022-12-18T12:57:38.702Z,2.55
2022-12-18T13:01:23.841Z,2.00
2022-12-18T13:05:41.528Z,1.90
2022-12-18T13:09:23.269Z,1.73
2022-12-18T13:13:16.505Z,2.20
2022-12-18T13:17:21.452Z,1.85
2022-12-18T13:21:19.902Z,2.00
2022-12-18T13:25:02.326Z,1.52
2022-12-18T13:28:47.095Z,1.50
2022-12-18T13:32:29.044Z,1.60
2022-12-18T13:36:13.828Z,1.67
2022-12-18T13:39:55.679Z,0.80
2022-12-18T13:43:44.367Z,1.00
2022-12-18T13:47:37.278Z,0.90
2022-12-18T13:51:21.042Z,1.20
2022-12-18T13:55:07.870Z,0.88
2022-12-18T13:59:16.466Z,1.05
2022-12-18T14:02:59.449Z,0.98
2022-12-18T14:06:44.054Z,0.95
2022-12-18T14:10:44.404Z,0.80
2022-12-18T14:14:32.811Z,0.90
2022-12-18T14:21:57.234Z,0.80
2022-12-18T14:25:39.050Z,1.05
2022-12-18T14:29:26.436Z,0.75
2022-12-18T14:36:57.484Z,0.88
2022-12-18T14:40:39.292Z,1.50
2022-12-18T14:44:22.528Z,0.80
2022-12-18T14:48:08.806Z,0.63
2022-12-18T14:52:03.516Z,0.80
2022-12-18T14:55:49.814Z,0.70
2022-12-18T14:59:32.441Z,0.80
2022-12-18T15:03:20.615Z,1.02
2022-12-18T15:07:19.198Z,1.30
2022-12-18T15:11:02.432Z,0.90
2022-12-18T15:14:45.039Z,1.10
2022-12-18T15:18:36.253Z,1.00
2022-12-18T15:22:30.968Z,0.98
2022-12-18T15:26:15.565Z,0.90
2022-12-18T15:30:21.661Z,1.30
2022-12-18T15:34:19.206Z,1.02
2022-12-18T15:38:01.008Z,0.90
2022-12-18T15:42:02.715Z,0.70
2022-12-18T15:45:44.505Z,0.70
2022-12-18T15:49:28.229Z,1.00
2022-12-18T15:53:11.314Z,1.17
2022-12-18T15:57:11.814Z,1.30
2022-12-18T16:00:55.147Z,1.48
2022-12-18T16:04:36.865Z,1.20
2022-12-18T16:08:18.898Z,1.20
2022-12-18T16:12:00.965Z,1.10
2022-12-18T16:15:42.917Z,1.10
2022-12-18T16:19:27.855Z,1.25
2022-12-18T16:23:09.626Z,1.30
2022-12-18T16:26:55.176Z,1.00
2022-12-18T16:30:38.524Z,1.42
2022-12-18T16:34:26.906Z,1.45
2022-12-18T16:38:13.816Z,2.42
2022-12-18T16:41:55.610Z,1.63
2022-12-18T16:45:38.965Z,1.48
2022-12-18T16:49:21.078Z,1.48
2022-12-18T16:53:02.797Z,1.60
2022-12-18T16:56:45.338Z,1.52
2022-12-18T17:00:29.902Z,1.50
2022-12-18T17:04:11.927Z,1.80
2022-12-18T17:07:53.745Z,1.40
2022-12-18T17:11:36.362Z,1.77
2022-12-18T17:15:20.946Z,2.35
2022-12-18T17:19:04.729Z,1.90
2022-12-18T17:22:46.531Z,2.15
2022-12-18T17:26:28.964Z,2.28
2022-12-18T17:30:11.510Z,2.22
2022-12-18T17:33:53.752Z,1.95
2022-12-18T17:37:35.495Z,1.63
2022-12-18T17:41:17.294Z,1.83
2022-12-18T17:44:59.033Z,1.48
2022-12-18T17:48:41.743Z,2.20
2022-12-18T17:52:25.713Z,2.30
2022-12-18T17:56:10.140Z,2.33
2022-12-18T17:59:51.843Z,2.30
2022-12-18T18:03:34.805Z,2.03
2022-12-18T18:07:17.341Z,1.90
2022-12-18T18:11:19.219Z,1.95
2022-12-18T18:15:01.113Z,1.95
2022-12-18T18:18:42.949Z,1.13
2022-12-18T18:22:24.675Z,1.65
2022-12-18T18:26:09.341Z,1.80
2022-12-18T18:29:51.212Z,1.50
2022-12-18T18:33:33.349Z,1.52
2022-12-18T18:37:15.104Z,1.20
2022-12-18T18:41:04.713Z,1.30
2022-12-18T18:44:49.041Z,0.90
2022-12-18T18:48:37.289Z,1.00
2022-12-18T18:52:19.531Z,1.20
2022-12-18T18:56:37.458Z,1.50
2022-12-18T19:00:03.832Z,0.90
2022-12-18T19:03:46.661Z,1.33
2022-12-18T19:07:30.379Z,1.02
2022-12-18T19:11:36.410Z,1.30
2022-12-18T19:15:18.571Z,1.30
2022-12-18T19:19:02.194Z,1.10
2022-12-18T19:22:46.099Z,0.90
2022-12-18T19:26:37.788Z,0.73
2022-12-18T19:30:19.543Z,1.23
2022-12-18T19:34:01.386Z,1.23
2022-12-18T19:37:43.170Z,1.13
2022-12-18T19:41:25.671Z,1.42
2022-12-18T19:45:10.504Z,1.35
2022-12-18T19:48:52.481Z,0.77
2022-12-18T19:52:34.326Z,0.88
2022-12-18T19:56:19.417Z,0.93
2022-12-18T20:00:01.149Z,1.27
2022-12-18T20:03:44.140Z,1.00
2022-12-18T20:07:29.502Z,1.15
2022-12-18T20:11:12.090Z,0.73
2022-12-18T20:14:53.851Z,0.45
2022-12-18T20:18:35.599Z,0.52
2022-12-18T20:22:17.342Z,0.35
2022-12-18T20:25:59.467Z,0.60
2022-12-18T20:29:43.509Z,0.93
2022-12-18T20:33:25.253Z,0.50
2022-12-18T20:37:07.350Z,0.60
2022-12-18T20:40:49.051Z,0.20
2022-12-18T20:44:30.765Z,0.28
2022-12-18T20:48:12.520Z,0.20
2022-12-18T20:51:56.786Z,0.30
2022-12-18T20:55:42.474Z,0.20
2022-12-18T20:59:26.326Z,0.25
2022-12-18T21:03:08.145Z,0.40
2022-12-18T21:06:56.792Z,0.40
2022-12-18T21:10:42.454Z,0.45
2022-12-18T21:14:28.078Z,0.65
2022-12-18T21:18:09.800Z,0.68
2022-12-18T21:21:52.364Z,0.95
2022-12-18T21:25:34.277Z,1.50
2022-12-18T21:29:21.821Z,1.70
2022-12-18T21:33:03.719Z,1.10
2022-12-18T21:36:46.036Z,1.95
2022-12-18T21:40:28.829Z,1.85
2022-12-18T21:44:15.911Z,1.20
2022-12-18T21:48:00.540Z,1.95
2022-12-18T21:51:42.275Z,1.13
2022-12-18T21:55:24.076Z,1.25
2022-12-18T21:59:05.827Z,1.17
2022-12-18T22:03:01.151Z,1.00
2022-12-18T22:06:54.527Z,1.50
2022-12-18T22:10:37.313Z,0.80
2022-12-18T22:14:20.936Z,1.27
2022-12-18T22:18:02.688Z,1.10
2022-12-18T22:21:47.153Z,1.00
2022-12-18T22:25:28.910Z,0.95
2022-12-18T22:29:35.345Z,1.50
2022-12-18T22:33:17.149Z,1.30
2022-12-18T22:36:58.893Z,1.33
2022-12-18T22:40:40.721Z,1.05
2022-12-18T22:44:22.493Z,0.73
2022-12-18T22:48:04.441Z,1.23
2022-12-18T22:51:47.114Z,0.82
2022-12-18T22:55:28.849Z,1.38
2022-12-18T22:59:21.722Z,1.30
2022-12-18T23:03:03.716Z,1.25
2022-12-18T23:06:48.122Z,0.82
2022-12-18T23:10:29.845Z,0.77
2022-12-18T23:14:12.185Z,1.48
2022-12-18T23:17:54.022Z,0.80
2022-12-18T23:21:35.945Z,0.80
2022-12-18T23:25:18.897Z,0.43
2022-12-18T23:29:01.467Z,1.10
2022-12-18T23:32:43.168Z,0.50
2022-12-18T23:36:25.787Z,0.40
2022-12-18T23:40:08.262Z,0.52
2022-12-18T23:43:50.218Z,0.52
2022-12-18T23:47:32.019Z,0.40
2022-12-18T23:51:15.779Z,0.40
2022-12-18T23:54:57.580Z,0.38
2022-12-18T23:58:39.777Z,0.80
